Stations météo

réclame
Mon MeteoGroup
Mont-Rigi, Belgique (6494): Température de l'air & dewpoint: 17.09.2017 23:00:00 - 23.09.2017 23:00:00 (CEST)Mont-Rigi, Belgique (6494): Vitesse du vent & gusts: 17.09.2017 23:00:00 - 23.09.2017 23:00:00 (CEST)Mont-Rigi, Belgique (6494): Direction du vent: 17.09.2017 23:00:00 - 23.09.2017 23:00:00 (CEST)Mont-Rigi, Belgique (6494): reduced air pressure: 17.09.2017 23:00:00 - 23.09.2017 23:00:00 (CEST)Mont-Rigi, Belgique (6494): Ensoleillement: 17.09.2017 23:00:00 - 23.09.2017 23:00:00 (CEST)Mont-Rigi, Belgique (6494): Quantités de précipitations: 17.09.2017 23:00:00 - 23.09.2017 23:00:00 (CEST)
Date & Time tt [°C] td [°C] ff [km/h] ff [knt] fx [km/h] fx [knt] dd ppp [hPa] sd [min] rr [mm]
23.09.2017 23:00:00 8,8 7,8 11 6 - - ENE 1023,2 - -
23.09.2017 22:00:00 8,7 7,6 8 5 15 8 ENE 1023,4 0 0,0
23.09.2017 21:00:00 - - - - - - - - - -
23.09.2017 20:00:00 9,4 7,3 7 4 10 6 ENE 1023,0 0 0,0
23.09.2017 19:00:00 11,8 8,4 5 3 17 9 NNE 1022,3 0 0,0
23.09.2017 18:00:00 - - - - - - - - - -
23.09.2017 17:00:00 - - - - - - - - - -
23.09.2017 16:00:00 14,4 8,6 6 3 18 10 NW 1022,4 0 0,0
23.09.2017 15:00:00 - - - - - - - - - -
23.09.2017 14:00:00 - - - - - - - - - -
23.09.2017 13:00:00 13,5 9,2 5 3 10 6 NNE 1023,0 0 0,0
23.09.2017 12:00:00 13,5 8,6 6 3 13 7 NNW 1023,4 0 0,0
23.09.2017 11:00:00 - - - - - - - - - -
23.09.2017 10:00:00 - - - - - - - - - -
23.09.2017 09:00:00 8,3 8,1 5 3 11 6 NNE 1024,3 0 0,0
23.09.2017 08:00:00 5,8 5,6 7 4 9 5 N 1025,0 0 0,0
23.09.2017 07:00:00 6,4 6,2 5 3 9 5 N 1024,9 0 0,1
23.09.2017 06:00:00 7,0 6,8 6 3 11 6 NNW 1024,5 0 0,0
23.09.2017 05:00:00 8,1 7,9 4 2 8 4 N 1024,4 0 0,0
23.09.2017 04:00:00 7,7 7,4 4 2 6 3 NNE 1024,6 0 0,0
23.09.2017 03:00:00 9,4 9,3 4 2 11 6 NNE 1024,1 0 0,0
23.09.2017 02:00:00 10,3 10,2 7 4 15 8 NNE 1023,5 0 0,0
23.09.2017 01:00:00 10,6 10,6 5 3 14 7 NNW 1023,4 0 0,0
23.09.2017 00:00:00 10,9 10,8 8 4 13 7 WNW 1023,1 0 0,0
22.09.2017 23:00:00 11,0 10,9 6 4 13 7 WNW 1023,3 0 0,0
22.09.2017 22:00:00 11,0 10,8 4 2 12 7 W 1023,0 0 0,0
22.09.2017 21:00:00 - - - - - - - - - -
22.09.2017 20:00:00 - - - - - - - - - -
22.09.2017 19:00:00 12,5 9,6 6 3 13 7 WNW 1021,5 0 0,0
22.09.2017 18:00:00 13,2 9,5 8 4 16 8 WNW 1021,0 0 0,0
22.09.2017 17:00:00 14,5 9,0 9 5 19 10 NW 1020,6 0 0,0
22.09.2017 16:00:00 15,2 9,3 9 5 22 12 W 1020,0 0 0,0
22.09.2017 15:00:00 - - - - - - - - - -
22.09.2017 14:00:00 - - - - - - - - - -
22.09.2017 13:00:00 14,9 8,4 7 4 16 8 SW 1019,7 0 0,0
22.09.2017 12:00:00 - - - - - - - - - -
22.09.2017 11:00:00 13,1 8,5 7 4 12 7 WNW 1020,1 0 0,0
22.09.2017 10:00:00 11,5 9,6 4 2 10 5 SW 1020,1 0 0,0
22.09.2017 09:00:00 8,0 7,8 4 2 7 4 W 1020,9 0 0,0
22.09.2017 08:00:00 - - - - - - - - - -
22.09.2017 07:00:00 5,9 5,6 4 2 4 2 SSE 1021,0 0 0,0
22.09.2017 06:00:00 5,9 5,6 4 2 7 4 S 1021,0 0 0,1
22.09.2017 05:00:00 5,9 5,2 4 2 6 3 S 1021,0 0 0,0
22.09.2017 04:00:00 6,6 6,3 4 2 8 4 S 1020,9 0 0,0
22.09.2017 03:00:00 6,2 5,5 4 2 6 3 S 1021,6 0 0,0
22.09.2017 02:00:00 5,9 4,8 4 2 9 5 SE 1021,5 0 0,0
22.09.2017 01:00:00 7,2 5,8 7 4 9 5 SSE 1021,1 0 0,0
22.09.2017 00:00:00 7,8 6,0 6 4 10 6 S 1021,0 0 0,0
21.09.2017 23:00:00 8,0 6,1 6 4 12 6 S 1020,9 0 0,0
21.09.2017 22:00:00 7,7 5,6 6 4 11 6 S 1020,8 0 0,0
21.09.2017 21:00:00 9,0 6,6 8 4 11 6 S 1020,4 0 0,0
21.09.2017 20:00:00 9,5 6,4 8 4 11 6 SSE 1019,9 0 0,0
21.09.2017 19:00:00 12,4 7,1 7 4 16 9 SSE 1019,1 26 0,0
21.09.2017 18:00:00 13,4 6,5 10 6 17 9 S 1018,8 37 0,0
21.09.2017 17:00:00 13,8 6,7 10 5 20 11 SSE 1018,8 39 0,0
21.09.2017 16:00:00 - - - - - - - - - -
21.09.2017 15:00:00 14,5 7,6 12 6 24 13 SSE 1018,9 41 0,0
21.09.2017 14:00:00 13,9 6,4 14 8 23 12 SSW 1019,7 9 0,0
21.09.2017 13:00:00 12,9 6,9 14 7 23 12 S 1020,2 0 0,0
21.09.2017 12:00:00 11,8 6,6 14 8 22 12 S 1020,7 - -
21.09.2017 11:00:00 10,7 7,5 12 7 19 11 SSE 1021,0 0 0,0
21.09.2017 10:00:00 9,5 8,8 11 6 18 10 S 1021,3 0 0,0
21.09.2017 09:00:00 7,8 7,7 8 5 12 7 SSE 1021,5 0 0,0
21.09.2017 08:00:00 5,7 5,5 8 4 13 7 SSE 1022,2 0 0,1
21.09.2017 07:00:00 5,4 5,2 6 4 11 6 SSE 1022,3 0 0,0
21.09.2017 06:00:00 5,0 4,8 10 5 11 6 SE 1022,4 0 0,0
21.09.2017 05:00:00 - - - - - - - - - -
21.09.2017 04:00:00 4,8 4,6 4 2 6 4 SE 1022,8 0 0,0
21.09.2017 03:00:00 5,1 4,9 4 2 5 3 SSW 1022,6 0 0,0
21.09.2017 02:00:00 4,9 4,7 4 2 7 4 S 1023,0 0 0,0
21.09.2017 01:00:00 - - - - - - - - - -
21.09.2017 00:00:00 - - - - - - - - - -
20.09.2017 23:00:00 5,8 5,1 4 2 8 5 S 1022,8 0 0,0
20.09.2017 22:00:00 6,4 5,4 5 3 7 4 SSW 1022,7 0 0,0
20.09.2017 21:00:00 8,1 6,8 5 3 9 5 SSW 1022,2 0 0,0
20.09.2017 20:00:00 8,7 7,2 7 4 12 6 SW 1021,7 0 0,0
20.09.2017 19:00:00 10,0 6,3 9 5 19 11 WSW 1021,2 0 0,0
20.09.2017 18:00:00 11,6 7,7 13 7 19 11 WSW 1020,7 0 0,0
20.09.2017 17:00:00 11,2 6,9 10 6 23 12 WSW 1021,0 0 0,0
20.09.2017 16:00:00 - - - - - - - - - -
20.09.2017 15:00:00 11,2 6,6 14 7 24 13 SW 1021,1 0 0,0
20.09.2017 14:00:00 - - - - - - - - - -
20.09.2017 13:00:00 10,9 7,8 14 8 24 13 SW 1021,3 0 0,0
20.09.2017 12:00:00 - - - - - - - - - -
20.09.2017 11:00:00 - - - - - - - - - -
20.09.2017 10:00:00 7,9 7,7 13 7 21 11 WSW 1022,2 0 0,0
20.09.2017 09:00:00 7,9 7,7 11 6 22 12 SW 1021,9 0 0,1
20.09.2017 08:00:00 7,6 7,4 7 4 14 8 WSW 1021,9 0 0,6
20.09.2017 07:00:00 7,4 7,2 8 5 11 6 SW 1021,7 0 0,0
20.09.2017 06:00:00 7,6 7,5 7 4 13 7 SW 1021,6 0 0,0
20.09.2017 05:00:00 - - - - - - - - - -
20.09.2017 04:00:00 8,1 8,0 7 4 12 6 W 1021,3 0 0,0
20.09.2017 03:00:00 7,9 7,8 5 3 11 6 WSW 1021,7 0 0,0
20.09.2017 02:00:00 7,8 7,7 7 4 15 8 W 1021,8 0 0,0
20.09.2017 01:00:00 7,6 7,0 7 4 13 7 WNW 1022,0 0 0,0
20.09.2017 00:00:00 7,6 7,4 7 4 11 6 W 1021,9 0 0,0
19.09.2017 23:00:00 6,8 6,3 7 4 10 5 WNW 1022,2 0 0,0
19.09.2017 22:00:00 6,4 5,6 5 3 11 6 NW 1022,2 0 0,0
19.09.2017 21:00:00 7,0 6,1 7 4 10 5 NW 1021,7 0 0,0
19.09.2017 20:00:00 - - - - - - - - - -
19.09.2017 19:00:00 9,2 7,9 10 5 18 10 NW 1020,0 0 0,0
19.09.2017 18:00:00 9,7 7,8 10 5 23 12 WNW 1019,4 0 0,0
19.09.2017 17:00:00 9,0 7,2 9 5 24 13 NW 1019,3 0 0,0
19.09.2017 16:00:00 9,7 8,8 12 6 20 11 NW 1018,9 0 0,0
19.09.2017 15:00:00 9,0 8,8 9 5 25 14 NW 1018,4 0 0,0
19.09.2017 14:00:00 8,8 8,7 11 6 18 10 WNW 1018,7 0 0,5
19.09.2017 13:00:00 8,0 7,9 9 5 19 10 W 1018,8 0 0,0
19.09.2017 12:00:00 7,6 7,4 11 6 18 10 W 1018,5 0 0,1
19.09.2017 11:00:00 - - - - - - - - - -
19.09.2017 10:00:00 7,4 7,3 9 5 17 9 W 1017,6 0 6,0
19.09.2017 09:00:00 7,4 7,3 7 4 16 9 WSW 1017,1 0 1,7
19.09.2017 08:00:00 6,9 6,7 11 6 21 12 WSW 1017,0 0 2,0
19.09.2017 07:00:00 7,2 7,1 9 5 19 11 WSW 1016,4 0 0,1
19.09.2017 06:00:00 7,2 7,0 11 6 21 11 WSW 1016,3 0 0,8
19.09.2017 05:00:00 7,0 6,8 13 7 23 12 WSW 1016,3 0 0,0
19.09.2017 04:00:00 7,5 7,3 13 7 19 10 WSW 1016,3 0 0,0
19.09.2017 03:00:00 - - - - - - - - - -
19.09.2017 02:00:00 - - - - - - - - - -
19.09.2017 01:00:00 7,2 7,0 11 6 22 12 WSW 1016,5 0 0,0
19.09.2017 00:00:00 - - - - - - - - - -
18.09.2017 23:00:00 7,4 7,2 12 6 26 14 SW 1016,4 0 0,0
18.09.2017 22:00:00 7,4 7,1 12 6 23 12 WSW 1016,3 0 0,1
18.09.2017 21:00:00 7,5 7,0 10 6 14 8 SW 1016,4 0 0,0
18.09.2017 20:00:00 7,4 6,4 11 6 26 14 SW 1015,9 0 0,0
18.09.2017 19:00:00 8,1 6,8 16 8 32 17 WSW 1015,4 0 0,1
18.09.2017 18:00:00 - - - - - - - - - -
18.09.2017 17:00:00 9,6 7,3 13 7 27 14 SSW 1014,7 0 0,0
18.09.2017 16:00:00 10,1 7,5 15 8 31 17 SSW 1014,5 0 0,0
18.09.2017 15:00:00 10,7 8,0 19 10 32 17 SW 1014,6 0 0,0
18.09.2017 14:00:00 - - - - - - - - - -
18.09.2017 13:00:00 8,5 8,3 14 8 22 12 SSW 1015,6 0 0,0
18.09.2017 12:00:00 7,6 7,4 14 8 27 14 SSW 1015,4 0 0,0
18.09.2017 11:00:00 6,5 6,3 13 7 27 15 SSW 1015,7 0 0,8
18.09.2017 10:00:00 6,3 6,1 12 7 27 14 SSW 1015,4 0 0,5
18.09.2017 09:00:00 5,7 5,4 13 7 21 12 SSW 1015,2 0 0,0
18.09.2017 08:00:00 5,6 5,3 11 6 15 8 S 1015,3 0 0,0
18.09.2017 07:00:00 5,5 5,2 11 6 18 10 SSW 1015,0 0 0,0
18.09.2017 06:00:00 4,1 3,8 9 5 13 7 SW 1015,2 0 0,0
18.09.2017 05:00:00 3,9 3,6 8 4 15 8 SW 1015,3 0 0,0
18.09.2017 04:00:00 3,1 2,8 8 4 11 6 SW 1015,5 0 0,0
18.09.2017 03:00:00 - - - - - - - - - -
18.09.2017 02:00:00 3,8 3,0 5 3 9 5 SW 1015,5 0 0,0
18.09.2017 01:00:00 4,9 4,0 6 4 12 7 WSW 1015,4 0 0,0
18.09.2017 00:00:00 5,5 4,8 4 2 6 3 SW 1015,4 0 0,1
17.09.2017 23:00:00 6,5 5,8 0 0 11 6 - 1014,8 0 0,2

tt = Température de l'air
td = dewpoint
ff = Vitesse du vent
fx = gusts
dd = Direction du vent
ppp = reduced air pressure
sd = Ensoleillement
rr = Quantités de précipitations

stations d'obs. à proximité